createdAt,value
2019-03-03T00:01:52.561Z,4.47
2019-03-03T00:04:23.182Z,5.00
2019-03-03T00:06:53.644Z,4.80
2019-03-03T00:09:25.985Z,5.00
2019-03-03T00:11:56.401Z,4.50
2019-03-03T00:14:26.827Z,4.60
2019-03-03T00:16:57.278Z,4.47
2019-03-03T00:19:27.689Z,4.77
2019-03-03T00:21:58.114Z,4.87
2019-03-03T00:24:28.615Z,4.60
2019-03-03T00:26:59.020Z,3.97
2019-03-03T00:29:29.447Z,4.83
2019-03-03T00:31:59.866Z,4.57
2019-03-03T00:34:30.275Z,4.80
2019-03-03T00:37:04.931Z,4.80
2019-03-03T00:39:45.978Z,4.07
2019-03-03T00:42:26.880Z,4.53
2019-03-03T00:44:58.914Z,4.03
2019-03-03T00:47:35.651Z,4.43
2019-03-03T00:50:09.154Z,4.10
2019-03-03T00:52:41.173Z,3.83
2019-03-03T00:55:15.968Z,3.70
2019-03-03T00:57:50.615Z,4.57
2019-03-03T01:00:24.607Z,4.80
2019-03-03T01:02:59.340Z,4.47
2019-03-03T01:05:34.530Z,5.07
2019-03-03T01:08:12.378Z,5.40
2019-03-03T01:10:44.358Z,4.73
2019-03-03T01:13:22.390Z,4.63
2019-03-03T01:15:54.407Z,4.27
2019-03-03T01:18:32.318Z,4.10
2019-03-03T01:21:08.140Z,4.50
2019-03-03T01:23:42.807Z,3.30
2019-03-03T01:26:13.238Z,4.33
2019-03-03T01:28:43.704Z,3.97
2019-03-03T01:31:14.098Z,4.00
2019-03-03T01:33:45.390Z,4.53
2019-03-03T01:36:15.934Z,4.20
2019-03-03T01:38:46.361Z,3.83
2019-03-03T01:41:16.759Z,3.43
2019-03-03T01:43:47.202Z,4.43
2019-03-03T01:46:17.632Z,4.20
2019-03-03T01:48:48.032Z,3.30
2019-03-03T01:51:18.428Z,3.87
2019-03-03T01:53:48.857Z,3.47
2019-03-03T01:56:19.269Z,3.50
2019-03-03T01:58:51.259Z,3.90
2019-03-03T02:01:21.639Z,3.60
2019-03-03T02:03:52.329Z,3.43
2019-03-03T02:06:23.014Z,3.60
2019-03-03T02:08:53.647Z,3.60
2019-03-03T02:11:27.091Z,3.60
2019-03-03T02:13:57.835Z,3.47
2019-03-03T02:16:28.501Z,3.43
2019-03-03T02:18:59.163Z,3.33
2019-03-03T02:21:29.842Z,3.50
2019-03-03T02:24:00.242Z,3.50
2019-03-03T02:26:30.758Z,3.47
2019-03-03T02:29:01.226Z,3.77
2019-03-03T02:31:31.675Z,3.40
2019-03-03T02:34:02.055Z,3.27
2019-03-03T02:36:32.439Z,4.07
2019-03-03T02:39:04.411Z,3.40
2019-03-03T02:41:34.862Z,3.80
2019-03-03T02:44:05.457Z,3.30
2019-03-03T02:46:35.900Z,3.70
2019-03-03T02:49:06.405Z,3.20
2019-03-03T02:51:36.992Z,3.50
2019-03-03T02:54:07.423Z,3.80
2019-03-03T02:56:37.862Z,3.77
2019-03-03T02:59:08.367Z,2.93
2019-03-03T03:01:40.454Z,3.43
2019-03-03T03:04:11.111Z,3.30
2019-03-03T03:06:46.006Z,3.20
2019-03-03T03:09:18.010Z,3.90
2019-03-03T03:11:58.770Z,3.40
2019-03-03T03:14:33.596Z,3.30
2019-03-03T03:17:17.254Z,3.27
2019-03-03T03:20:01.389Z,4.10
2019-03-03T03:22:33.321Z,3.83
2019-03-03T03:25:21.909Z,3.90
2019-03-03T03:28:02.768Z,4.93
2019-03-03T03:30:49.821Z,4.67
2019-03-03T03:33:24.756Z,4.30
2019-03-03T03:35:56.762Z,5.83
2019-03-03T03:38:28.730Z,5.40
2019-03-03T03:41:16.690Z,6.10
2019-03-03T03:43:57.845Z,6.33
2019-03-03T03:46:38.555Z,6.30
2019-03-03T03:49:10.561Z,6.00
2019-03-03T03:51:45.303Z,6.27
2019-03-03T03:54:35.478Z,6.57
2019-03-03T03:57:13.521Z,6.33
2019-03-03T03:59:45.506Z,6.53
2019-03-03T04:02:17.455Z,6.43
2019-03-03T04:04:55.197Z,7.40
2019-03-03T04:07:45.399Z,7.63
2019-03-03T04:10:20.389Z,7.17
2019-03-03T04:12:55.679Z,7.67
2019-03-03T04:15:33.661Z,7.53
2019-03-03T04:18:05.652Z,8.47
2019-03-03T04:20:40.700Z,8.90
2019-03-03T04:23:12.891Z,9.60
2019-03-03T04:26:01.133Z,8.57
2019-03-03T04:28:45.252Z,10.53
2019-03-03T04:31:17.226Z,9.50
2019-03-03T04:33:54.468Z,10.47
2019-03-03T04:36:26.544Z,9.77
2019-03-03T04:39:01.193Z,11.53
2019-03-03T04:41:35.912Z,13.87
2019-03-03T04:44:22.749Z,13.03
2019-03-03T04:47:00.567Z,13.40
2019-03-03T04:49:41.317Z,13.03
2019-03-03T04:52:25.205Z,14.57
2019-03-03T04:55:15.540Z,13.10
2019-03-03T04:57:50.594Z,14.57
2019-03-03T05:00:34.679Z,16.97
2019-03-03T05:03:22.967Z,18.50
2019-03-03T05:05:57.917Z,17.67
2019-03-03T05:08:29.887Z,16.57
2019-03-03T05:11:01.868Z,17.37
2019-03-03T05:13:33.879Z,18.13
2019-03-03T05:16:20.971Z,26.83
2019-03-03T05:18:52.966Z,29.90
2019-03-03T05:21:23.448Z,23.27
2019-03-03T05:23:53.960Z,20.07
2019-03-03T05:26:24.514Z,20.57
2019-03-03T05:28:54.936Z,30.47
2019-03-03T05:31:25.352Z,28.77
2019-03-03T05:33:55.829Z,27.13
2019-03-03T05:36:26.289Z,21.43
2019-03-03T05:38:56.716Z,19.63
2019-03-03T05:41:27.156Z,20.40
2019-03-03T05:43:57.603Z,27.20
2019-03-03T05:46:28.106Z,28.80
2019-03-03T05:48:58.621Z,26.07
2019-03-03T05:51:29.032Z,25.67
2019-03-03T05:53:59.573Z,28.50
2019-03-03T05:56:30.080Z,26.17
2019-03-03T05:59:00.474Z,26.40
2019-03-03T06:01:30.875Z,26.37
2019-03-03T06:04:01.392Z,24.97
2019-03-03T06:06:31.872Z,26.37
2019-03-03T06:09:02.441Z,23.87
2019-03-03T06:11:33.036Z,25.90
2019-03-03T06:14:03.403Z,21.80
2019-03-03T06:16:33.925Z,23.77
2019-03-03T06:19:04.307Z,24.63
2019-03-03T06:21:34.719Z,25.27
2019-03-03T06:24:05.262Z,24.37
2019-03-03T06:26:35.691Z,23.67
2019-03-03T06:29:06.220Z,27.00
2019-03-03T06:31:37.776Z,26.30
2019-03-03T06:34:09.123Z,29.37
2019-03-03T06:36:39.549Z,29.40
2019-03-03T06:39:10.030Z,29.53
2019-03-03T06:41:40.418Z,28.37
2019-03-03T06:44:10.883Z,26.13
2019-03-03T06:46:41.427Z,15.53
2019-03-03T06:49:12.679Z,18.73
2019-03-03T06:51:43.200Z,12.40
2019-03-03T06:54:13.635Z,11.20
2019-03-03T06:56:44.030Z,11.60
2019-03-03T06:59:16.677Z,12.27
2019-03-03T07:01:47.105Z,10.73
2019-03-03T07:04:17.651Z,12.23
2019-03-03T07:06:48.212Z,11.67
2019-03-03T07:09:18.893Z,12.90
2019-03-03T07:11:49.320Z,13.70
2019-03-03T07:14:19.714Z,14.47
2019-03-03T07:16:50.243Z,14.53
2019-03-03T07:19:20.671Z,12.60
2019-03-03T07:21:51.085Z,14.03
2019-03-03T07:24:23.079Z,13.57
2019-03-03T07:26:53.487Z,13.80
2019-03-03T07:29:25.443Z,13.00
2019-03-03T07:31:55.926Z,15.73
2019-03-03T07:34:27.935Z,16.00
2019-03-03T07:36:58.365Z,13.37
2019-03-03T07:39:29.164Z,14.87
2019-03-03T07:42:05.648Z,13.93
2019-03-03T07:44:36.578Z,14.00
2019-03-03T07:47:07.166Z,17.03
2019-03-03T07:49:54.244Z,18.10
2019-03-03T07:52:26.109Z,16.63
2019-03-03T07:54:56.660Z,15.27
2019-03-03T07:57:27.067Z,15.43
2019-03-03T07:59:57.603Z,13.43
2019-03-03T08:02:28.786Z,15.10
2019-03-03T08:04:59.249Z,14.40
2019-03-03T08:07:29.674Z,14.13
2019-03-03T08:10:00.259Z,14.07
2019-03-03T08:12:30.769Z,15.10
2019-03-03T08:15:02.125Z,14.80
2019-03-03T08:17:32.556Z,13.50
2019-03-03T08:20:02.958Z,13.47
2019-03-03T08:22:33.377Z,11.50
2019-03-03T08:25:05.573Z,10.30
2019-03-03T08:27:37.539Z,10.23
2019-03-03T08:30:14.568Z,12.00
2019-03-03T08:32:47.068Z,11.03
2019-03-03T08:35:29.302Z,10.90
2019-03-03T08:37:59.788Z,10.83
2019-03-03T08:40:30.255Z,7.37
2019-03-03T08:43:08.112Z,7.43
2019-03-03T08:45:55.814Z,8.27
2019-03-03T08:48:36.923Z,8.60
2019-03-03T08:51:14.846Z,9.20
2019-03-03T08:53:52.680Z,9.73
2019-03-03T08:56:36.761Z,10.30
2019-03-03T08:59:23.899Z,7.10
2019-03-03T09:02:01.842Z,7.00
2019-03-03T09:04:39.822Z,6.67
2019-03-03T09:07:14.803Z,11.10
2019-03-03T09:09:49.610Z,6.77
2019-03-03T09:12:23.212Z,6.23
2019-03-03T09:15:03.652Z,4.70
2019-03-03T09:17:51.589Z,5.47
2019-03-03T09:20:23.931Z,5.10
2019-03-03T09:23:02.078Z,4.70
2019-03-03T09:25:34.370Z,5.83
2019-03-03T09:28:12.106Z,5.50
2019-03-03T09:30:47.146Z,5.57
2019-03-03T09:33:26.255Z,5.73
2019-03-03T09:36:12.043Z,6.40
2019-03-03T09:38:53.066Z,7.90
2019-03-03T09:41:41.212Z,5.90
2019-03-03T09:44:19.034Z,6.13
2019-03-03T09:46:57.191Z,5.80
2019-03-03T09:49:29.253Z,5.47
2019-03-03T09:52:07.106Z,6.57
2019-03-03T09:54:42.080Z,6.50
2019-03-03T09:57:25.431Z,7.07
2019-03-03T10:00:04.218Z,7.47
2019-03-03T10:02:42.369Z,7.40
2019-03-03T10:05:26.553Z,7.70
2019-03-03T10:08:10.486Z,8.47
2019-03-03T10:10:45.288Z,8.67
2019-03-03T10:13:32.556Z,9.13
2019-03-03T10:16:08.055Z,7.17
2019-03-03T10:18:54.943Z,7.13
2019-03-03T10:21:35.839Z,6.60
2019-03-03T10:24:15.367Z,8.00
2019-03-03T10:27:04.943Z,5.43
2019-03-03T10:29:40.084Z,12.13
2019-03-03T10:32:13.134Z,8.63
2019-03-03T10:34:54.155Z,6.50
2019-03-03T10:37:30.515Z,6.90
2019-03-03T10:40:06.110Z,8.10
2019-03-03T10:42:46.369Z,9.17
2019-03-03T10:45:20.899Z,8.00
2019-03-03T10:47:56.004Z,6.47
2019-03-03T10:50:33.940Z,7.47
2019-03-03T10:53:07.364Z,7.83
2019-03-03T10:55:39.450Z,6.53
2019-03-03T10:58:27.820Z,6.37
2019-03-03T11:01:00.013Z,6.33
2019-03-03T11:03:44.225Z,6.63
2019-03-03T11:06:25.351Z,6.37
2019-03-03T11:08:57.370Z,5.87
2019-03-03T11:11:29.429Z,4.80
2019-03-03T11:14:20.318Z,4.10
2019-03-03T11:16:55.225Z,4.07
2019-03-03T11:19:27.128Z,4.73
2019-03-03T11:22:07.904Z,5.17
2019-03-03T11:24:42.803Z,5.67
2019-03-03T11:27:20.599Z,5.20
2019-03-03T11:30:08.633Z,5.93
2019-03-03T11:32:50.828Z,7.03
2019-03-03T11:35:34.815Z,4.70
2019-03-03T11:38:06.776Z,6.33
2019-03-03T11:40:41.413Z,7.03
2019-03-03T11:43:22.159Z,5.63
2019-03-03T11:46:11.352Z,5.73
2019-03-03T11:48:52.392Z,5.37
2019-03-03T11:51:24.505Z,5.87
2019-03-03T11:54:11.678Z,5.90
2019-03-03T11:56:46.697Z,6.40
2019-03-03T11:59:27.654Z,6.50
2019-03-03T12:02:02.939Z,6.33
2019-03-03T12:04:41.151Z,6.37
2019-03-03T12:07:28.271Z,6.30
2019-03-03T12:10:07.641Z,6.03
2019-03-03T12:12:56.214Z,6.37
2019-03-03T12:15:36.041Z,6.63
2019-03-03T12:21:06.784Z,6.30
2019-03-03T12:23:47.846Z,6.17
2019-03-03T12:26:37.009Z,6.10
2019-03-03T12:29:25.155Z,5.70
2019-03-03T12:32:13.371Z,5.20
2019-03-03T12:35:01.219Z,5.80
2019-03-03T12:37:35.698Z,5.87
2019-03-03T12:40:23.127Z,5.47
2019-03-03T12:42:57.971Z,5.40
2019-03-03T12:45:46.236Z,4.10
2019-03-03T12:48:21.523Z,4.47
2019-03-03T12:51:08.545Z,4.97
2019-03-03T12:53:40.699Z,4.23
2019-03-03T12:56:28.847Z,5.37
2019-03-03T12:59:13.522Z,5.50
2019-03-03T13:02:01.570Z,5.80
2019-03-03T13:04:49.890Z,29.50
2019-03-03T13:07:27.894Z,5.40
2019-03-03T13:10:15.726Z,4.70
2019-03-03T13:13:04.071Z,5.07
2019-03-03T13:15:53.456Z,4.77
2019-03-03T13:18:34.312Z,4.07
2019-03-03T13:21:18.261Z,3.60
2019-03-03T13:23:54.989Z,5.10
2019-03-03T13:26:31.600Z,5.13
2019-03-03T13:29:24.133Z,5.40
2019-03-03T13:32:05.012Z,5.13
2019-03-03T13:34:43.239Z,5.43
2019-03-03T13:37:24.072Z,4.60
2019-03-03T13:39:58.942Z,5.10
2019-03-03T13:42:33.883Z,5.30
2019-03-03T13:45:08.346Z,5.60
2019-03-03T13:47:40.997Z,5.83
2019-03-03T13:50:20.214Z,5.87
2019-03-03T13:52:51.668Z,5.97
2019-03-03T13:55:22.081Z,6.13
2019-03-03T13:57:59.544Z,7.70
2019-03-03T14:00:34.076Z,9.13
2019-03-03T14:03:08.403Z,7.77
2019-03-03T14:05:40.363Z,6.67
2019-03-03T14:08:16.144Z,5.00
2019-03-03T14:10:49.036Z,5.73
2019-03-03T14:13:19.504Z,6.70
2019-03-03T14:15:54.947Z,5.50
2019-03-03T14:18:26.912Z,6.03
2019-03-03T14:20:57.415Z,5.47
2019-03-03T14:23:27.838Z,5.50
2019-03-03T14:25:58.369Z,5.00
2019-03-03T14:28:39.344Z,6.13
2019-03-03T14:31:17.062Z,5.67
2019-03-03T14:33:52.052Z,6.33
2019-03-03T14:36:23.803Z,7.63
2019-03-03T14:38:54.261Z,8.07
2019-03-03T14:41:24.707Z,6.60
2019-03-03T14:43:57.003Z,6.93
2019-03-03T14:46:27.442Z,7.20
2019-03-03T14:48:57.939Z,7.13
2019-03-03T14:51:40.265Z,7.67
2019-03-03T14:54:12.255Z,7.40
2019-03-03T14:56:45.955Z,8.73
2019-03-03T14:59:20.015Z,7.13
2019-03-03T15:01:58.427Z,8.50
2019-03-03T15:04:43.882Z,8.03
2019-03-03T15:07:17.079Z,8.20
2019-03-03T15:09:47.873Z,8.37
2019-03-03T15:12:27.238Z,9.10
2019-03-03T15:14:58.158Z,10.20
2019-03-03T15:17:36.575Z,10.93
2019-03-03T15:20:08.701Z,10.70
2019-03-03T15:23:12.019Z,11.03
2019-03-03T15:26:07.889Z,12.07
2019-03-03T15:32:03.929Z,14.43
2019-03-03T15:37:48.049Z,14.47
2019-03-03T15:40:35.605Z,15.37
2019-03-03T15:43:08.536Z,13.47
2019-03-03T15:45:39.074Z,12.87
2019-03-03T15:48:11.243Z,13.30
2019-03-03T15:54:19.387Z,16.30
2019-03-03T15:56:50.580Z,18.73
2019-03-03T15:59:28.604Z,22.60
2019-03-03T16:02:08.067Z,21.87
2019-03-03T16:04:41.265Z,22.67
2019-03-03T16:07:11.276Z,23.37
2019-03-03T16:09:41.905Z,22.13
2019-03-03T16:12:12.391Z,23.47
2019-03-03T16:14:49.410Z,22.20
2019-03-03T16:17:23.490Z,22.10
2019-03-03T16:20:01.539Z,20.90
2019-03-03T16:22:49.101Z,21.63
2019-03-03T16:25:25.967Z,21.27
2019-03-03T16:31:16.455Z,18.50
2019-03-03T16:33:53.305Z,15.60
2019-03-03T16:36:42.493Z,15.30
2019-03-03T16:39:31.270Z,13.40
2019-03-03T16:42:04.511Z,13.80
2019-03-03T16:44:39.846Z,15.73
2019-03-03T16:47:14.422Z,14.27
